createdAt,value
2023-05-20T00:00:57.335Z,101123.44
2023-05-20T00:03:25.099Z,101129.03
2023-05-20T00:05:52.854Z,101125.16
2023-05-20T00:08:20.512Z,101128.44
2023-05-20T00:10:47.989Z,101126.28
2023-05-20T00:13:15.515Z,101121.97
2023-05-20T00:15:42.954Z,101124.19
2023-05-20T00:18:11.737Z,101117.22
2023-05-20T00:20:39.336Z,101118.97
2023-05-20T00:23:06.868Z,101114.84
2023-05-20T00:25:34.490Z,101100.34
2023-05-20T00:28:02.160Z,101095.41
2023-05-20T00:30:29.746Z,101094.94
2023-05-20T00:32:57.257Z,101101.22
2023-05-20T00:35:26.101Z,101102.13
2023-05-20T00:37:53.534Z,101103.00
2023-05-20T00:40:21.835Z,101099.59
2023-05-20T00:42:49.337Z,101101.69
2023-05-20T00:45:16.938Z,101099.81
2023-05-20T00:47:45.042Z,101100.81
2023-05-20T00:50:12.690Z,101102.75
2023-05-20T00:52:45.100Z,101103.72
2023-05-20T00:55:13.249Z,101110.13
2023-05-20T00:57:41.037Z,101111.91
2023-05-20T01:00:10.394Z,101095.41
2023-05-20T01:02:37.964Z,101103.38
2023-05-20T01:05:06.185Z,101107.38
2023-05-20T01:07:34.233Z,101114.75
2023-05-20T01:10:03.758Z,101116.75
2023-05-20T01:12:36.996Z,101116.41
2023-05-20T01:15:09.418Z,101114.97
2023-05-20T01:17:40.256Z,101117.16
2023-05-20T01:20:10.520Z,101114.03
2023-05-20T01:22:40.277Z,101104.19
2023-05-20T01:25:08.251Z,101102.25
2023-05-20T01:27:35.850Z,101098.16
2023-05-20T01:30:03.495Z,101107.88
2023-05-20T01:32:35.872Z,101100.47
2023-05-20T01:35:05.039Z,101113.94
2023-05-20T01:37:33.415Z,101111.88
2023-05-20T01:40:02.446Z,101117.00
2023-05-20T01:42:30.276Z,101121.84
2023-05-20T01:44:57.818Z,101115.44
2023-05-20T01:47:25.683Z,101111.63
2023-05-20T01:49:54.150Z,101125.03
2023-05-20T01:52:21.926Z,101114.59
2023-05-20T01:54:51.278Z,101117.41
2023-05-20T01:57:20.885Z,101116.16
2023-05-20T01:59:48.519Z,101098.84
2023-05-20T02:02:16.311Z,101101.03
2023-05-20T02:04:47.702Z,101098.75
2023-05-20T02:07:15.569Z,101106.63
2023-05-20T02:09:43.645Z,101103.63
2023-05-20T02:12:16.326Z,101111.47
2023-05-20T02:14:45.738Z,101112.97
2023-05-20T02:17:14.551Z,101115.34
2023-05-20T02:19:41.964Z,101103.34
2023-05-20T02:22:09.676Z,101106.88
2023-05-20T02:24:37.252Z,101107.06
2023-05-20T02:27:06.262Z,101103.78
2023-05-20T02:29:33.884Z,101105.41
2023-05-20T02:32:02.641Z,101101.44
2023-05-20T02:34:31.566Z,101095.19
2023-05-20T02:36:59.105Z,101099.31
2023-05-20T02:39:28.382Z,101096.19
2023-05-20T02:41:56.261Z,101093.81
2023-05-20T02:44:23.851Z,101099.97
2023-05-20T02:46:51.411Z,101102.63
2023-05-20T02:49:20.373Z,101096.41
2023-05-20T02:51:47.852Z,101097.34
2023-05-20T02:54:15.392Z,101098.50
2023-05-20T02:56:42.885Z,101084.34
2023-05-20T02:59:10.326Z,101076.94
2023-05-20T03:01:37.834Z,101074.69
2023-05-20T03:04:05.436Z,101066.13
2023-05-20T03:06:34.269Z,101064.31
2023-05-20T03:09:01.727Z,101057.53
2023-05-20T03:11:29.161Z,101065.75
2023-05-20T03:13:56.631Z,101061.97
2023-05-20T03:16:25.288Z,101074.34
2023-05-20T03:18:54.574Z,101077.66
2023-05-20T03:21:23.907Z,101076.16
2023-05-20T03:23:52.841Z,101056.91
2023-05-20T03:26:21.261Z,101065.25
2023-05-20T03:28:48.799Z,101063.13
2023-05-20T03:31:16.332Z,101078.75
2023-05-20T03:33:45.498Z,101088.16
2023-05-20T03:36:13.084Z,101079.59
2023-05-20T03:38:40.510Z,101075.63
2023-05-20T03:41:09.362Z,101066.41
2023-05-20T03:43:36.820Z,101074.56
2023-05-20T03:46:04.388Z,101076.16
2023-05-20T03:48:31.816Z,101081.34
2023-05-20T03:50:59.300Z,101074.66
2023-05-20T03:53:26.846Z,101076.09
2023-05-20T03:55:54.338Z,101080.44
2023-05-20T03:58:23.284Z,101082.94
2023-05-20T04:00:50.798Z,101083.19
2023-05-20T04:03:18.418Z,101077.22
2023-05-20T04:05:46.140Z,101082.28
2023-05-20T04:08:14.261Z,101075.97
2023-05-20T04:10:42.613Z,101075.94
2023-05-20T04:13:11.112Z,101081.53
2023-05-20T04:15:39.954Z,101073.03
2023-05-20T04:18:07.512Z,101077.91
2023-05-20T04:20:35.238Z,101082.31
2023-05-20T04:23:02.671Z,101084.50
2023-05-20T04:25:30.121Z,101076.88
2023-05-20T04:27:57.798Z,101084.47
2023-05-20T04:30:25.726Z,101081.66
2023-05-20T04:32:55.573Z,101078.28
2023-05-20T04:35:26.074Z,101085.22
2023-05-20T04:37:55.372Z,101085.16
2023-05-20T04:40:23.051Z,101088.66
2023-05-20T04:42:51.021Z,101098.13
2023-05-20T04:45:18.748Z,101094.38
2023-05-20T04:47:46.311Z,101090.88
2023-05-20T04:50:15.267Z,101088.63
2023-05-20T04:52:45.458Z,101086.78
2023-05-20T04:55:15.391Z,101080.00
2023-05-20T04:57:43.578Z,101083.81
2023-05-20T05:00:13.238Z,101078.56
2023-05-20T05:02:41.486Z,101085.13
2023-05-20T05:05:09.593Z,101079.91
2023-05-20T05:07:38.408Z,101079.38
2023-05-20T05:10:06.616Z,101076.25
2023-05-20T05:12:34.094Z,101071.59
2023-05-20T05:15:01.548Z,101066.13
2023-05-20T05:17:29.458Z,101068.34
2023-05-20T05:19:56.980Z,101065.03
2023-05-20T05:22:24.478Z,101072.63
2023-05-20T05:24:53.302Z,101067.47
2023-05-20T05:27:20.772Z,101070.25
2023-05-20T05:29:48.198Z,101061.91
2023-05-20T05:32:15.766Z,101070.25
2023-05-20T05:34:43.587Z,101077.41
2023-05-20T05:37:11.034Z,101070.88
2023-05-20T05:39:38.475Z,101070.78
2023-05-20T05:42:07.470Z,101068.16
2023-05-20T05:44:34.941Z,101075.94
2023-05-20T05:47:02.414Z,101082.00
2023-05-20T05:49:29.915Z,101079.91
2023-05-20T05:51:57.383Z,101070.13
2023-05-20T05:54:24.984Z,101070.88
2023-05-20T05:56:52.842Z,101064.69
2023-05-20T05:59:21.637Z,101066.22
2023-05-20T06:01:49.360Z,101068.19
2023-05-20T06:04:16.962Z,101064.22
2023-05-20T06:06:44.647Z,101054.19
2023-05-20T06:09:12.134Z,101059.78
2023-05-20T06:11:42.228Z,101054.63
2023-05-20T06:14:09.710Z,101052.00
2023-05-20T06:16:38.596Z,101049.88
2023-05-20T06:19:06.490Z,101067.53
2023-05-20T06:21:33.943Z,101061.81
2023-05-20T06:24:01.363Z,101067.94
2023-05-20T06:26:28.792Z,101064.19
2023-05-20T06:28:56.231Z,101078.63
2023-05-20T06:31:23.847Z,101057.81
2023-05-20T06:33:52.703Z,101060.25
2023-05-20T06:36:20.176Z,101060.09
2023-05-20T06:38:47.699Z,101063.69
2023-05-20T06:41:15.146Z,101055.31
2023-05-20T06:43:42.606Z,101054.75
2023-05-20T06:46:10.133Z,101059.09
2023-05-20T06:48:37.637Z,101050.69
2023-05-20T06:51:08.645Z,101053.75
2023-05-20T06:53:36.253Z,101040.06
2023-05-20T06:56:03.746Z,101035.31
2023-05-20T06:58:31.518Z,101026.13
2023-05-20T07:00:58.995Z,101028.75
2023-05-20T07:03:26.592Z,101022.09
2023-05-20T07:05:54.187Z,101039.25
2023-05-20T07:08:22.973Z,101033.72
2023-05-20T07:10:50.437Z,101030.47
2023-05-20T07:13:18.204Z,101010.88
2023-05-20T07:15:47.454Z,101022.09
2023-05-20T07:18:14.974Z,101011.28
2023-05-20T07:20:42.635Z,101022.19
2023-05-20T07:23:10.102Z,101018.91
2023-05-20T07:25:38.868Z,101020.31
2023-05-20T07:28:06.386Z,101013.00
2023-05-20T07:30:33.870Z,101010.47
2023-05-20T07:33:01.365Z,101015.22
2023-05-20T07:35:28.898Z,101008.13
2023-05-20T07:37:56.463Z,101001.41
2023-05-20T07:40:24.108Z,100994.47
2023-05-20T07:42:52.939Z,100989.69
2023-05-20T07:45:20.897Z,100992.88
2023-05-20T07:47:48.790Z,101001.97
2023-05-20T07:50:16.708Z,100999.94
2023-05-20T07:52:55.187Z,101000.78
2023-05-20T07:55:24.421Z,101004.47
2023-05-20T07:57:53.204Z,101002.41
2023-05-20T08:00:20.993Z,100991.66
2023-05-20T08:02:48.555Z,101000.22
2023-05-20T08:05:16.281Z,100994.31
2023-05-20T08:07:43.740Z,100993.38
2023-05-20T08:10:11.737Z,100984.94
2023-05-20T08:12:39.240Z,100985.25
2023-05-20T08:15:09.358Z,100970.63
2023-05-20T08:17:36.812Z,100974.69
2023-05-20T08:20:05.038Z,100968.50
2023-05-20T08:22:32.917Z,100958.13
2023-05-20T08:25:00.535Z,100968.94
2023-05-20T08:27:27.968Z,100968.16
2023-05-20T08:29:55.457Z,100968.34
2023-05-20T08:32:24.229Z,100971.88
2023-05-20T08:34:51.714Z,100965.28
2023-05-20T08:37:19.250Z,100957.34
2023-05-20T08:39:49.123Z,100964.44
2023-05-20T08:42:16.818Z,100950.22
2023-05-20T08:44:47.871Z,100939.66
2023-05-20T08:47:15.394Z,100940.63
2023-05-20T08:49:44.204Z,100937.66
2023-05-20T08:52:14.131Z,100935.81
2023-05-20T08:54:46.076Z,100946.25
2023-05-20T08:57:13.958Z,100941.34
2023-05-20T08:59:44.075Z,100926.75
2023-05-20T09:02:12.339Z,100928.44
2023-05-20T09:04:40.012Z,100928.31
2023-05-20T09:07:09.122Z,100936.22
2023-05-20T09:09:36.948Z,100936.31
2023-05-20T09:12:04.754Z,100944.56
2023-05-20T09:14:32.461Z,100942.72
2023-05-20T09:17:00.651Z,100934.25
2023-05-20T09:19:28.171Z,100930.69
2023-05-20T09:21:56.184Z,100931.09
2023-05-20T09:24:28.139Z,100925.94
2023-05-20T09:26:56.352Z,100933.13
2023-05-20T09:29:24.415Z,100925.66
2023-05-20T09:31:52.056Z,100931.06
2023-05-20T09:34:21.886Z,100925.84
2023-05-20T09:36:51.935Z,100939.91
2023-05-20T09:39:23.660Z,100939.59
2023-05-20T09:41:57.152Z,100922.28
2023-05-20T09:44:25.200Z,100925.94
2023-05-20T09:46:53.963Z,100915.94
2023-05-20T09:49:23.544Z,100913.97
2023-05-20T09:51:52.139Z,100912.94
2023-05-20T09:54:20.496Z,100904.78
2023-05-20T09:56:48.471Z,100899.72
2023-05-20T09:59:18.069Z,100917.94
2023-05-20T10:01:46.117Z,100897.91
2023-05-20T10:04:17.132Z,100891.44
2023-05-20T10:07:01.986Z,100890.75
2023-05-20T10:09:43.486Z,100890.94
2023-05-20T10:12:21.051Z,100898.19
2023-05-20T10:15:00.051Z,100880.91
2023-05-20T10:17:38.305Z,100877.66
2023-05-20T10:20:11.718Z,100872.22
2023-05-20T10:22:40.394Z,100878.94
2023-05-20T10:25:25.599Z,100879.00
2023-05-20T10:27:53.305Z,100875.13
2023-05-20T10:30:23.352Z,100867.44
2023-05-20T10:32:54.390Z,100872.06
2023-05-20T10:35:26.250Z,100855.28
2023-05-20T10:37:54.715Z,100857.44
2023-05-20T10:40:23.444Z,100856.91
2023-05-20T10:42:50.915Z,100865.59
2023-05-20T10:45:30.102Z,100858.22
2023-05-20T10:47:59.424Z,100855.66
2023-05-20T10:50:28.912Z,100841.31
2023-05-20T10:53:03.116Z,100834.19
2023-05-20T10:55:37.172Z,100838.53
2023-05-20T10:58:05.410Z,100837.38
2023-05-20T11:00:36.279Z,100846.22
2023-05-20T11:03:05.846Z,100832.19
2023-05-20T11:05:33.810Z,100833.09
2023-05-20T11:08:13.742Z,100821.72
2023-05-20T11:10:53.020Z,100830.47
2023-05-20T11:13:20.557Z,100822.09
2023-05-20T11:15:50.434Z,100830.88
2023-05-20T11:18:18.686Z,100823.66
2023-05-20T11:20:47.856Z,100816.34
2023-05-20T11:23:16.383Z,100829.22
2023-05-20T11:25:43.976Z,100827.25
2023-05-20T11:28:14.711Z,100819.88
2023-05-20T11:30:43.724Z,100820.44
2023-05-20T11:33:14.978Z,100816.41
2023-05-20T11:35:46.534Z,100805.44
2023-05-20T11:38:14.195Z,100799.63
2023-05-20T11:40:50.576Z,100790.84
2023-05-20T11:43:19.336Z,100783.13
2023-05-20T11:45:48.467Z,100787.19
2023-05-20T11:48:17.294Z,100779.47
2023-05-20T11:50:45.925Z,100779.47
2023-05-20T11:53:17.762Z,100778.63
2023-05-20T11:55:51.019Z,100776.78
2023-05-20T11:58:20.428Z,100768.97
2023-05-20T12:00:54.687Z,100770.72
2023-05-20T12:03:26.400Z,100764.78
2023-05-20T12:05:54.248Z,100770.44
2023-05-20T12:08:22.596Z,100759.19
2023-05-20T12:10:50.099Z,100763.25
2023-05-20T12:13:17.876Z,100755.66
2023-05-20T12:15:45.632Z,100754.47
2023-05-20T12:18:13.146Z,100743.22
2023-05-20T12:20:41.928Z,100749.09
2023-05-20T12:23:09.349Z,100746.94
2023-05-20T12:25:36.808Z,100730.50
2023-05-20T12:28:04.407Z,100734.38
2023-05-20T12:30:32.087Z,100739.31
2023-05-20T12:32:59.668Z,100733.84
2023-05-20T12:35:38.195Z,100728.78
2023-05-20T12:38:07.395Z,100727.56
2023-05-20T12:40:35.662Z,100709.47
2023-05-20T12:43:04.535Z,100714.72
2023-05-20T12:45:32.574Z,100711.94
2023-05-20T12:48:00.494Z,100703.38
2023-05-20T12:50:28.315Z,100704.97
2023-05-20T12:52:55.842Z,100701.75
2023-05-20T12:55:25.073Z,100692.81
2023-05-20T12:57:52.552Z,100704.38
2023-05-20T13:00:19.995Z,100706.69
2023-05-20T13:02:48.207Z,100704.97
2023-05-20T13:05:15.928Z,100704.25
2023-05-20T13:07:43.505Z,100695.06
2023-05-20T13:10:14.853Z,100694.63
2023-05-20T13:12:45.955Z,100690.38
2023-05-20T13:15:14.518Z,100689.94
2023-05-20T13:17:43.403Z,100687.75
2023-05-20T13:20:11.953Z,100689.31
2023-05-20T13:22:39.413Z,100681.78
2023-05-20T13:25:07.803Z,100672.25
2023-05-20T13:27:35.369Z,100672.63
2023-05-20T13:30:06.188Z,100680.28
2023-05-20T13:32:33.754Z,100675.00
2023-05-20T13:35:01.376Z,100667.03
2023-05-20T13:37:28.887Z,100659.06
2023-05-20T13:39:56.395Z,100650.69
2023-05-20T13:42:23.928Z,100670.19
2023-05-20T13:44:51.362Z,100647.72
2023-05-20T13:47:20.232Z,100647.22
2023-05-20T13:49:47.741Z,100649.78
2023-05-20T13:52:15.156Z,100660.34
2023-05-20T13:54:42.979Z,100667.44
2023-05-20T13:57:10.556Z,100648.38
2023-05-20T13:59:38.603Z,100635.47
2023-05-20T14:02:06.299Z,100635.88
2023-05-20T14:04:38.052Z,100627.81
2023-05-20T14:07:07.138Z,100635.47
2023-05-20T14:09:36.809Z,100620.78
2023-05-20T14:12:04.688Z,100617.56
2023-05-20T14:14:32.114Z,100618.53
2023-05-20T14:16:59.555Z,100621.34
2023-05-20T14:19:27.519Z,100619.13
2023-05-20T14:21:56.280Z,100608.53
2023-05-20T14:24:23.981Z,100611.25
2023-05-20T14:26:51.495Z,100606.78
2023-05-20T14:29:18.919Z,100593.81
2023-05-20T14:31:46.416Z,100605.56
2023-05-20T14:34:13.893Z,100597.19
2023-05-20T14:36:41.744Z,100601.94
2023-05-20T14:39:10.630Z,100589.13
2023-05-20T14:41:38.117Z,100589.25
2023-05-20T14:44:05.940Z,100593.81
2023-05-20T14:46:33.467Z,100585.28
2023-05-20T14:49:01.377Z,100584.72
2023-05-20T14:51:28.852Z,100595.72
2023-05-20T14:53:56.300Z,100596.22
2023-05-20T14:56:30.281Z,100592.16
2023-05-20T14:58:57.722Z,100607.59
2023-05-20T15:01:25.154Z,100604.38
2023-05-20T15:03:52.645Z,100601.75
2023-05-20T15:06:20.206Z,100603.84
2023-05-20T15:08:47.761Z,100609.13
2023-05-20T15:11:15.201Z,100599.34
2023-05-20T15:13:46.265Z,100587.94
2023-05-20T15:16:14.339Z,100588.72
2023-05-20T15:18:41.910Z,100581.38
2023-05-20T15:21:09.348Z,100568.91
2023-05-20T15:23:37.000Z,100561.34
2023-05-20T15:26:04.519Z,100575.59
2023-05-20T15:28:31.995Z,100574.41
2023-05-20T15:31:00.763Z,100575.75
2023-05-20T15:33:28.315Z,100571.38
2023-05-20T15:35:55.861Z,100567.63
2023-05-20T15:38:23.387Z,100572.59
2023-05-20T15:40:51.085Z,100575.44
2023-05-20T15:43:18.931Z,100568.94
2023-05-20T15:45:48.274Z,100557.97
2023-05-20T15:48:17.269Z,100560.75
2023-05-20T15:50:44.774Z,100559.59
2023-05-20T15:53:12.206Z,100553.16
2023-05-20T15:55:39.663Z,100549.06
2023-05-20T15:58:07.493Z,100557.22
2023-05-20T16:00:35.329Z,100545.09
2023-05-20T16:03:03.110Z,100554.00
2023-05-20T16:05:31.993Z,100558.03
2023-05-20T16:07:59.476Z,100564.56
2023-05-20T16:10:32.425Z,100569.78
2023-05-20T16:13:00.458Z,100561.28
2023-05-20T16:15:28.166Z,100560.50
2023-05-20T16:17:55.691Z,100563.72
2023-05-20T16:20:23.410Z,100549.84
2023-05-20T16:22:52.181Z,100553.47
2023-05-20T16:25:19.638Z,100550.09
2023-05-20T16:27:47.068Z,100552.38
2023-05-20T16:30:14.567Z,100559.72
2023-05-20T16:32:42.167Z,100562.00
2023-05-20T16:35:10.052Z,100560.44
2023-05-20T16:37:37.464Z,100560.50
2023-05-20T16:40:09.478Z,100566.59
2023-05-20T16:42:37.710Z,100569.84
2023-05-20T16:45:05.984Z,100569.75
2023-05-20T16:47:34.092Z,100569.78
2023-05-20T16:50:01.565Z,100569.47
2023-05-20T16:52:29.042Z,100569.47
2023-05-20T16:54:58.527Z,100561.34
2023-05-20T16:57:27.290Z,100575.91
2023-05-20T16:59:54.701Z,100571.06
2023-05-20T17:02:22.188Z,100567.03
2023-05-20T17:04:49.743Z,100569.84
2023-05-20T17:07:17.407Z,100573.09
2023-05-20T17:09:44.847Z,100582.84
2023-05-20T17:12:15.957Z,100572.72
2023-05-20T17:14:44.760Z,100571.88
2023-05-20T17:17:13.942Z,100577.56
2023-05-20T17:19:41.532Z,100575.88
2023-05-20T17:22:09.006Z,100580.38
2023-05-20T17:24:36.524Z,100577.16
2023-05-20T17:27:05.920Z,100589.69
2023-05-20T17:29:33.846Z,100579.56
2023-05-20T17:32:02.623Z,100583.66
2023-05-20T17:34:30.442Z,100578.78
2023-05-20T17:36:58.198Z,100586.44
2023-05-20T17:39:25.644Z,100579.88
2023-05-20T17:41:53.047Z,100592.88
2023-05-20T17:44:20.467Z,100588.75
2023-05-20T17:46:48.668Z,100590.81
2023-05-20T17:49:17.733Z,100604.16
2023-05-20T17:51:46.103Z,100606.56
2023-05-20T17:54:13.883Z,100613.44
2023-05-20T17:56:42.019Z,100617.31
2023-05-20T17:59:09.546Z,100618.50
2023-05-20T18:01:37.426Z,100617.66
2023-05-20T18:04:05.866Z,100620.00
2023-05-20T18:06:35.425Z,100626.09
2023-05-20T18:09:04.533Z,100624.94
2023-05-20T18:11:32.772Z,100624.91
2023-05-20T18:14:00.395Z,100619.03
2023-05-20T18:16:29.101Z,100616.66
2023-05-20T18:18:57.372Z,100623.16
2023-05-20T18:21:26.030Z,100624.47
2023-05-20T18:23:54.849Z,100639.19
2023-05-20T18:26:22.585Z,100631.19
2023-05-20T18:28:50.984Z,100637.25
2023-05-20T18:31:18.510Z,100630.34
2023-05-20T18:33:45.975Z,100632.28
2023-05-20T18:36:13.896Z,100634.59
2023-05-20T18:38:41.881Z,100636.16
2023-05-20T18:41:10.785Z,100635.91
2023-05-20T18:43:38.227Z,100640.06
2023-05-20T18:46:06.387Z,100643.38
2023-05-20T18:48:33.837Z,100646.06
2023-05-20T18:51:01.585Z,100646.16
2023-05-20T18:53:29.051Z,100653.72
2023-05-20T18:56:01.264Z,100647.44
2023-05-20T18:58:30.567Z,100652.88
2023-05-20T19:00:58.105Z,100647.56
2023-05-20T19:03:26.345Z,100656.00
2023-05-20T19:05:54.302Z,100656.50
2023-05-20T19:08:23.125Z,100663.06
2023-05-20T19:10:50.744Z,100668.84
2023-05-20T19:13:18.174Z,100664.00
2023-05-20T19:15:46.941Z,100666.00
2023-05-20T19:18:14.405Z,100666.81
2023-05-20T19:20:41.838Z,100670.84
2023-05-20T19:23:09.286Z,100662.75
2023-05-20T19:25:36.950Z,100674.69
2023-05-20T19:28:05.047Z,100672.59
2023-05-20T19:30:32.678Z,100667.97
2023-05-20T19:33:03.656Z,100672.53
2023-05-20T19:35:31.289Z,100676.69
2023-05-20T19:37:58.825Z,100673.69
2023-05-20T19:40:26.550Z,100676.84
2023-05-20T19:42:54.053Z,100674.75
2023-05-20T19:45:26.948Z,100677.81
2023-05-20T19:47:54.543Z,100680.72
2023-05-20T19:50:23.510Z,100688.81
2023-05-20T19:52:51.172Z,100690.06
2023-05-20T19:55:18.596Z,100686.38
2023-05-20T19:57:46.674Z,100687.75
2023-05-20T20:00:15.618Z,100696.38
2023-05-20T20:02:43.121Z,100691.25
2023-05-20T20:05:10.779Z,100687.34
2023-05-20T20:07:39.580Z,100688.97
2023-05-20T20:10:08.555Z,100689.84
2023-05-20T20:12:36.095Z,100675.84
2023-05-20T20:15:03.890Z,100680.19
2023-05-20T20:17:33.406Z,100682.13
2023-05-20T20:20:01.043Z,100675.34
2023-05-20T20:22:31.975Z,100674.38
2023-05-20T20:25:00.740Z,100679.63
2023-05-20T20:27:28.293Z,100672.44
2023-05-20T20:29:55.999Z,100675.78
2023-05-20T20:32:24.190Z,100671.50
2023-05-20T20:34:52.316Z,100678.00
2023-05-20T20:37:22.999Z,100673.69
2023-05-20T20:39:50.987Z,100681.00
2023-05-20T20:42:19.871Z,100681.13
2023-05-20T20:44:48.384Z,100675.03
2023-05-20T20:47:16.002Z,100686.19
2023-05-20T20:49:43.419Z,100677.56
2023-05-20T20:52:11.119Z,100672.41
2023-05-20T20:54:39.566Z,100680.84
2023-05-20T20:57:09.176Z,100683.59
2023-05-20T20:59:38.343Z,100685.66
2023-05-20T21:02:09.929Z,100677.16
2023-05-20T21:04:39.774Z,100674.41
2023-05-20T21:07:07.344Z,100669.16
2023-05-20T21:09:35.215Z,100667.75
2023-05-20T21:12:06.442Z,100673.53
2023-05-20T21:14:33.884Z,100666.84
2023-05-20T21:17:02.695Z,100666.25
2023-05-20T21:19:30.617Z,100659.28
2023-05-20T21:21:58.063Z,100664.31
2023-05-20T21:24:25.536Z,100661.22
2023-05-20T21:26:52.927Z,100660.41
2023-05-20T21:29:20.517Z,100657.66
2023-05-20T21:31:48.329Z,100660.91
2023-05-20T21:34:17.088Z,100659.38
2023-05-20T21:36:44.565Z,100659.47
2023-05-20T21:39:11.972Z,100658.66
2023-05-20T21:41:39.416Z,100650.84
2023-05-20T21:44:07.064Z,100649.13
2023-05-20T21:46:34.836Z,100651.78
2023-05-20T21:49:02.307Z,100657.41
2023-05-20T21:51:31.645Z,100654.28
2023-05-20T21:53:59.112Z,100657.81
2023-05-20T21:56:27.354Z,100650.84
2023-05-20T21:58:54.777Z,100647.78
2023-05-20T22:01:22.271Z,100642.13
2023-05-20T22:03:51.456Z,100656.09
2023-05-20T22:06:21.347Z,100654.19
2023-05-20T22:08:50.160Z,100661.34
2023-05-20T22:11:17.643Z,100656.78
2023-05-20T22:13:45.082Z,100653.53
2023-05-20T22:16:12.582Z,100643.03
2023-05-20T22:18:40.019Z,100641.75
2023-05-20T22:21:07.486Z,100644.19
2023-05-20T22:23:34.939Z,100647.19
2023-05-20T22:26:04.838Z,100645.09
2023-05-20T22:28:32.279Z,100647.22
2023-05-20T22:30:59.785Z,100649.75
2023-05-20T22:33:27.357Z,100638.53
2023-05-20T22:35:54.778Z,100643.78
2023-05-20T22:38:22.262Z,100635.50
2023-05-20T22:40:49.690Z,100626.44
2023-05-20T22:43:18.549Z,100622.91
2023-05-20T22:45:46.073Z,100631.09
2023-05-20T22:48:13.521Z,100626.06
2023-05-20T22:50:41.450Z,100624.53
2023-05-20T22:53:08.867Z,100628.22
2023-05-20T22:55:38.705Z,100631.66
2023-05-20T22:58:07.977Z,100627.78
2023-05-20T23:00:37.104Z,100623.16
2023-05-20T23:03:04.698Z,100615.09
2023-05-20T23:05:32.276Z,100614.28
2023-05-20T23:07:59.934Z,100625.69
2023-05-20T23:10:27.429Z,100623.13
2023-05-20T23:12:54.860Z,100617.59
2023-05-20T23:15:24.461Z,100615.03
2023-05-20T23:17:53.304Z,100612.34
2023-05-20T23:20:22.219Z,100623.13
2023-05-20T23:22:49.721Z,100615.97
2023-05-20T23:25:17.542Z,100619.25
2023-05-20T23:27:45.006Z,100616.22
2023-05-20T23:30:12.754Z,100617.28
2023-05-20T23:32:40.271Z,100622.13
2023-05-20T23:35:11.606Z,100612.25
2023-05-20T23:37:40.914Z,100610.56
2023-05-20T23:40:10.140Z,100613.81
2023-05-20T23:42:37.637Z,100614.34
2023-05-20T23:45:05.848Z,100613.88
2023-05-20T23:47:34.217Z,100612.69
2023-05-20T23:50:01.654Z,100616.19
2023-05-20T23:52:30.871Z,100601.25
2023-05-20T23:54:58.576Z,100605.75
2023-05-20T23:57:26.392Z,100600.28
2023-05-20T23:59:53.842Z,100598.75
